Time;durP1;ratioP1;P1;durP2;ratioP2;P2;SDS_P1;SDS_P2;PMS_P1;PMS_P2;Temp;Humidity;BMP_temperature;BMP_pressure;BME280_temperature;BME280_humidity;BME280_pressure;Samples;Min_cycle;Max_cycle;Signal;HPM_P1;HPM_P2
2022/07/13 00:01:08;;;;;;;;;6.00;6.00;;;;;31.04;25.69;101884.56;5046489;28;45335;-67
2022/07/13 00:03:35;;;;;;;;;6.00;6.00;;;;;31.00;26.09;101874.94;5056734;28;45577;-67
2022/07/13 00:06:00;;;;;;;;;5.33;5.33;;;;;30.89;25.95;101876.75;5048945;28;45385;-67
2022/07/13 00:08:25;;;;;;;;;6.67;6.33;;;;;30.86;26.31;101889.34;5046495;28;45908;-69
2022/07/13 00:10:51;;;;;;;;;5.67;5.67;;;;;30.75;26.51;101872.59;5031429;28;45483;-67
2022/07/13 00:13:16;;;;;;;;;6.67;6.67;;;;;30.70;26.49;101878.97;5044996;28;45318;-67
2022/07/13 00:15:41;;;;;;;;;6.67;6.67;;;;;30.57;26.24;101868.06;5051774;28;45441;-67
2022/07/13 00:18:07;;;;;;;;;6.00;6.00;;;;;30.64;26.94;101879.13;5043572;28;46622;-67
2022/07/13 00:20:32;;;;;;;;;7.50;7.50;;;;;30.57;26.09;101882.09;5041747;28;45815;-67
2022/07/13 00:22:57;;;;;;;;;7.67;7.67;;;;;30.54;26.41;101886.25;5042658;28;45384;-67
2022/07/13 00:25:23;;;;;;;;;8.33;7.00;;;;;30.48;26.77;101876.03;5053339;28;45540;-68
2022/07/13 00:27:49;;;;;;;;;6.33;6.33;;;;;30.44;26.98;101879.59;5043054;28;46601;-67
2022/07/13 00:30:14;;;;;;;;;6.00;6.00;;;;;30.44;27.39;101885.22;5053923;28;45326;-67
2022/07/13 00:32:39;;;;;;;;;5.00;5.00;;;;;30.39;27.21;101880.34;5057630;28;45298;-69
2022/07/13 00:35:05;;;;;;;;;7.00;4.67;;;;;30.29;27.37;101870.91;5051751;28;45439;-67
2022/07/13 00:37:31;;;;;;;;;7.33;5.67;;;;;30.25;27.13;101873.34;5048262;28;47538;-67
2022/07/13 00:39:56;;;;;;;;;10.00;5.33;;;;;30.31;27.33;101874.31;5050804;28;45257;-68
2022/07/13 00:42:21;;;;;;;;;6.00;6.00;;;;;30.29;27.50;101870.91;5044383;28;45240;-67
2022/07/13 00:44:47;;;;;;;;;7.67;6.00;;;;;30.21;27.66;101869.34;5048537;28;45584;-66
2022/07/13 00:47:13;;;;;;;;;6.00;6.00;;;;;30.22;27.28;101864.59;5056979;28;45310;-66
2022/07/13 00:49:38;;;;;;;;;8.00;7.00;;;;;30.22;27.09;101873.00;5036699;28;45428;-66
2022/07/13 00:52:04;;;;;;;;;4.00;4.00;;;;;30.19;27.14;101866.81;5048743;28;45333;-66
2022/07/13 00:54:30;;;;;;;;;7.33;5.00;;;;;30.18;27.76;101858.63;5047733;28;45314;-67
2022/07/13 00:56:56;;;;;;;;;5.00;5.00;;;;;30.23;27.04;101857.91;5042641;28;46170;-67
2022/07/13 00:59:23;;;;;;;;;8.67;5.00;;;;;30.21;27.34;101863.75;5049620;28;45382;-66
2022/07/13 01:01:48;;;;;;;;;7.00;7.00;;;;;30.22;27.39;101853.38;5058506;28;45529;-67
2022/07/13 01:04:13;;;;;;;;;9.00;7.00;;;;;30.13;27.68;101856.59;5043366;28;45394;-67
2022/07/13 01:06:39;;;;;;;;;3.00;3.00;;;;;30.04;27.75;101855.28;5043484;28;45418;-67
2022/07/13 01:09:05;;;;;;;;;6.67;5.00;;;;;30.02;27.65;101860.31;5055771;28;45409;-67
2022/07/13 01:11:32;;;;;;;;;6.00;5.00;;;;;29.87;28.36;101837.56;5042406;28;45481;-67
2022/07/13 01:13:59;;;;;;;;;6.00;6.00;;;;;29.84;28.48;101857.66;5048476;28;45625;-68
2022/07/13 01:16:25;;;;;;;;;5.33;5.33;;;;;29.74;28.10;101854.66;5050114;28;45351;-69
2022/07/13 01:18:51;;;;;;;;;5.00;5.00;;;;;29.66;28.57;101863.47;5054818;28;45315;-67
2022/07/13 01:21:18;;;;;;;;;6.00;6.00;;;;;29.64;28.71;101854.47;5047832;28;45394;-67
2022/07/13 01:23:44;;;;;;;;;6.00;6.00;;;;;29.60;28.99;101861.63;5048477;28;45292;-67
2022/07/13 01:26:10;;;;;;;;;5.33;5.00;;;;;29.56;28.55;101854.84;5055001;28;45169;-68
2022/07/13 01:28:36;;;;;;;;;6.33;5.33;;;;;29.58;28.71;101858.25;5050638;28;45327;-67
2022/07/13 01:31:01;;;;;;;;;11.00;8.00;;;;;29.52;28.71;101860.06;5048715;28;45506;-66
2022/07/13 01:33:26;;;;;;;;;7.00;6.33;;;;;29.53;28.83;101858.97;5035778;28;45517;-66
2022/07/13 01:35:52;;;;;;;;;8.00;6.33;;;;;29.55;29.17;101851.19;5050061;28;45393;-66
2022/07/13 01:38:17;;;;;;;;;5.67;5.67;;;;;29.57;29.23;101850.94;5047780;28;45248;-66
2022/07/13 01:40:42;;;;;;;;;7.00;7.00;;;;;29.50;29.66;101850.25;5048702;28;45315;-67
2022/07/13 01:43:08;;;;;;;;;6.00;6.00;;;;;29.52;28.79;101859.22;5046784;28;45460;-67
2022/07/13 01:45:33;;;;;;;;;9.00;7.00;;;;;29.45;28.51;101850.97;5040211;28;47680;-67
2022/07/13 01:47:58;;;;;;;;;8.00;7.00;;;;;29.39;29.26;101844.41;5045120;28;45335;-67
2022/07/13 01:50:25;;;;;;;;;8.00;7.00;;;;;29.35;29.05;101839.56;5057254;28;45467;-67
2022/07/13 01:52:52;;;;;;;;;7.00;6.67;;;;;29.35;29.77;101854.41;5041726;28;45689;-67
2022/07/13 01:55:18;;;;;;;;;6.00;6.00;;;;;29.27;29.60;101846.34;5056728;28;45411;-67
2022/07/13 01:57:44;;;;;;;;;13.00;10.00;;;;;29.26;29.09;101846.59;5045444;28;45383;-66
2022/07/13 02:00:14;;;;;;;;;8.00;7.00;;;;;29.22;29.42;101840.66;5055706;28;45317;-66
2022/07/13 02:02:40;;;;;;;;;11.67;8.33;;;;;29.29;29.86;101844.19;5046195;28;45367;-66
2022/07/13 02:05:06;;;;;;;;;12.33;8.33;;;;;29.32;29.73;101838.06;5054640;28;45280;-66
2022/07/13 02:07:31;;;;;;;;;10.67;9.00;;;;;29.34;29.43;101835.91;5054980;28;45424;-67
2022/07/13 02:09:57;;;;;;;;;13.00;11.00;;;;;29.31;29.18;101839.16;5042161;28;45745;-67
2022/07/13 02:12:22;;;;;;;;;10.67;9.00;;;;;29.32;29.66;101826.88;5045677;28;45260;-67
2022/07/13 02:14:48;;;;;;;;;13.00;10.75;;;;;29.35;29.33;101826.41;5037573;28;46517;-67
2022/07/13 02:17:14;;;;;;;;;12.00;10.75;;;;;29.47;29.13;101823.56;5045513;28;45380;-67
2022/07/13 02:19:39;;;;;;;;;11.00;8.00;;;;;29.51;29.05;101816.41;5048732;28;45422;-67
2022/07/13 02:22:05;;;;;;;;;9.75;9.75;;;;;29.59;28.70;101821.56;5045527;28;45186;-67
2022/07/13 02:24:30;;;;;;;;;12.75;12.25;;;;;29.60;28.69;101825.22;5050177;28;45366;-67
2022/07/13 02:26:55;;;;;;;;;12.67;10.00;;;;;29.55;28.45;101813.94;5045752;28;45285;-67
2022/07/13 02:29:21;;;;;;;;;9.33;9.33;;;;;29.51;29.16;101813.59;5044431;28;45318;-67
2022/07/13 02:31:46;;;;;;;;;14.00;11.33;;;;;29.45;28.27;101819.31;5054388;28;45497;-67
2022/07/13 02:34:11;;;;;;;;;10.00;10.00;;;;;29.45;29.03;101827.72;5041466;28;46342;-67
2022/07/13 02:36:37;;;;;;;;;10.00;10.00;;;;;29.51;28.95;101818.34;5048311;28;45271;-67
2022/07/13 02:39:03;;;;;;;;;14.00;11.33;;;;;29.59;28.72;101813.19;5049332;28;45726;-67
2022/07/13 02:41:28;;;;;;;;;15.50;13.25;;;;;29.61;29.43;101807.34;5046317;28;45315;-67
2022/07/13 02:43:53;;;;;;;;;12.25;10.75;;;;;29.60;29.03;101812.09;5051144;28;45297;-68
2022/07/13 02:46:19;;;;;;;;;16.00;14.00;;;;;29.55;29.68;101805.53;5046014;28;45762;-67
2022/07/13 02:48:44;;;;;;;;;17.50;13.75;;;;;29.46;29.53;101805.06;5030956;28;45500;-67
2022/07/13 02:51:09;;;;;;;;;16.00;16.00;;;;;29.49;29.92;101809.34;5048307;28;45485;-68
2022/07/13 02:53:35;;;;;;;;;11.75;11.75;;;;;29.45;29.71;101808.09;5046581;28;46657;-69
2022/07/13 02:56:00;;;;;;;;;15.25;14.00;;;;;29.36;30.26;101810.47;5045886;28;45389;-68
2022/07/13 02:58:25;;;;;;;;;15.25;14.00;;;;;29.26;30.40;101811.06;5055821;28;45529;-67
2022/07/13 03:00:51;;;;;;;;;14.00;12.50;;;;;29.22;30.13;101815.47;5049787;28;45411;-69
2022/07/13 03:03:17;;;;;;;;;12.33;10.67;;;;;29.24;30.11;101812.41;5058885;28;45580;-67
2022/07/13 03:05:42;;;;;;;;;13.33;11.33;;;;;29.26;30.52;101813.84;5042465;28;45545;-67
2022/07/13 03:08:07;;;;;;;;;14.75;12.50;;;;;29.20;31.08;101820.44;5045159;28;45375;-67
2022/07/13 03:10:33;;;;;;;;;15.25;10.75;;;;;29.14;31.18;101817.78;5049539;28;45336;-67
2022/07/13 03:12:58;;;;;;;;;6.00;6.00;;;;;29.15;31.13;101808.31;5044248;28;45459;-67
2022/07/13 03:15:24;;;;;;;;;13.00;11.25;;;;;29.16;31.64;101810.81;5051709;28;45510;-67
2022/07/13 03:17:49;;;;;;;;;12.00;11.00;;;;;29.15;31.68;101820.31;5044133;28;45631;-67
2022/07/13 03:20:15;;;;;;;;;13.50;12.25;;;;;29.13;32.25;101811.34;5042318;28;45634;-67
2022/07/13 03:22:40;;;;;;;;;13.33;11.67;;;;;29.10;32.36;101817.41;5043898;28;45335;-67
2022/07/13 03:25:06;;;;;;;;;13.25;11.75;;;;;29.13;32.46;101811.34;5055105;28;45338;-67
2022/07/13 03:27:31;;;;;;;;;12.33;10.00;;;;;29.11;31.91;101821.91;5046940;28;45352;-67
2022/07/13 03:29:57;;;;;;;;;10.00;10.00;;;;;29.11;32.49;101809.88;5050766;28;45285;-67
2022/07/13 03:32:22;;;;;;;;;12.00;12.00;;;;;29.10;32.78;101810.97;5060518;28;46684;-68
2022/07/13 03:34:47;;;;;;;;;13.00;12.50;;;;;29.03;32.53;101800.75;5048839;28;45469;-67
2022/07/13 03:37:13;;;;;;;;;11.00;11.00;;;;;29.12;33.06;101804.03;5045643;28;45405;-67
2022/07/13 03:39:39;;;;;;;;;12.75;12.00;;;;;29.01;33.38;101805.72;5048483;28;45407;-67
2022/07/13 03:42:04;;;;;;;;;13.67;12.33;;;;;28.98;33.54;101814.63;5043618;28;45925;-67
2022/07/13 03:44:30;;;;;;;;;15.25;12.25;;;;;28.93;33.48;101816.47;5052826;28;45710;-67
2022/07/13 03:46:55;;;;;;;;;12.00;12.00;;;;;28.89;33.81;101812.44;5026207;28;45297;-67
2022/07/13 03:49:21;;;;;;;;;8.67;8.67;;;;;28.88;33.83;101814.38;5047500;28;45471;-67
2022/07/13 03:51:46;;;;;;;;;17.50;14.00;;;;;28.87;33.98;101809.88;5043358;28;45445;-67
2022/07/13 03:54:12;;;;;;;;;14.25;12.75;;;;;28.82;33.74;101820.13;5052705;28;45316;-67
2022/07/13 03:56:39;;;;;;;;;13.00;10.25;;;;;28.74;33.71;101823.22;5043346;28;45375;-67
2022/07/13 03:59:04;;;;;;;;;15.00;13.75;;;;;28.79;33.77;101823.38;5061444;28;45299;-67
2022/07/13 04:01:30;;;;;;;;;16.75;13.75;;;;;28.85;34.63;101816.84;5047774;28;45411;-67
2022/07/13 04:03:55;;;;;;;;;17.75;14.00;;;;;28.81;34.10;101824.00;5061725;28;45329;-67
2022/07/13 04:06:21;;;;;;;;;14.75;12.00;;;;;28.70;34.91;101816.44;5051845;28;45335;-67
2022/07/13 04:08:46;;;;;;;;;16.75;15.25;;;;;28.72;34.81;101825.41;5047102;28;45551;-67
2022/07/13 04:11:11;;;;;;;;;15.25;14.75;;;;;28.64;34.52;101796.72;5048134;28;46326;-67
2022/07/13 04:13:37;;;;;;;;;14.25;14.00;;;;;28.74;34.86;101815.69;5038859;28;45249;-67
2022/07/13 04:16:02;;;;;;;;;12.25;12.25;;;;;28.70;34.64;101824.81;5048682;28;45355;-67
2022/07/13 04:18:27;;;;;;;;;17.50;13.25;;;;;28.73;34.99;101827.13;5043495;28;45565;-67
2022/07/13 04:20:53;;;;;;;;;13.75;12.75;;;;;28.77;34.48;101814.41;5042828;28;46146;-67
2022/07/13 04:23:18;;;;;;;;;23.25;15.50;;;;;28.78;35.43;101816.13;5044722;28;45438;-71
2022/07/13 04:25:44;;;;;;;;;17.75;13.50;;;;;28.71;34.55;101810.59;5050029;28;45458;-67
2022/07/13 04:28:09;;;;;;;;;15.75;14.00;;;;;28.83;34.96;101811.47;5043972;28;45311;-67
2022/07/13 04:30:35;;;;;;;;;16.50;14.25;;;;;28.80;34.66;101805.50;5041420;28;45728;-67
2022/07/13 04:33:01;;;;;;;;;16.50;13.25;;;;;28.86;35.71;101807.31;5042713;28;45273;-68
2022/07/13 04:35:26;;;;;;;;;16.75;15.75;;;;;29.01;34.70;101808.53;5048867;28;45472;-68
2022/07/13 04:37:52;;;;;;;;;17.00;13.50;;;;;28.88;34.94;101814.38;5043416;28;45284;-67
2022/07/13 04:40:18;;;;;;;;;19.50;15.75;;;;;28.87;34.47;101811.81;5049166;28;46173;-68
2022/07/13 04:42:43;;;;;;;;;16.25;16.25;;;;;28.93;34.83;101816.47;5059964;28;45474;-68
2022/07/13 04:45:10;;;;;;;;;19.75;17.75;;;;;28.99;34.41;101807.94;5048715;28;48160;-67
2022/07/13 04:47:36;;;;;;;;;19.50;15.00;;;;;29.09;34.16;101812.91;5042663;28;45264;-67
2022/07/13 04:50:02;;;;;;;;;22.50;19.00;;;;;29.12;33.98;101815.22;5035657;28;48348;-67
2022/07/13 04:52:27;;;;;;;;;16.25;15.00;;;;;29.21;34.32;101813.75;5042121;28;45339;-67
2022/07/13 04:54:53;;;;;;;;;18.33;16.00;;;;;29.25;34.32;101808.50;5037975;28;45464;-67
2022/07/13 04:57:18;;;;;;;;;17.00;15.00;;;;;29.33;33.42;101808.13;5044293;28;45246;-67
2022/07/13 04:59:43;;;;;;;;;19.25;16.25;;;;;29.37;34.18;101804.59;5054611;28;45662;-67
2022/07/13 05:02:09;;;;;;;;;17.50;16.00;;;;;29.42;33.91;101807.53;5045051;28;45458;-66
2022/07/13 05:04:34;;;;;;;;;20.50;19.00;;;;;29.38;34.08;101813.84;5048054;28;45488;-66
2022/07/13 05:07:00;;;;;;;;;15.25;14.25;;;;;29.38;34.39;101811.91;5040817;28;45394;-66
2022/07/13 05:09:26;;;;;;;;;16.75;15.50;;;;;29.38;33.84;101814.72;5047579;28;45473;-66
2022/07/13 05:11:52;;;;;;;;;14.25;12.25;;;;;29.48;34.63;101813.22;5041406;28;45311;-66
2022/07/13 05:14:17;;;;;;;;;18.50;15.50;;;;;29.50;34.81;101811.88;5051196;28;46078;-66
2022/07/13 05:16:42;;;;;;;;;19.50;17.75;;;;;29.53;34.71;101818.94;5042136;28;45299;-67
2022/07/13 05:19:08;;;;;;;;;16.50;14.25;;;;;29.57;34.86;101808.94;5046401;28;46467;-67
2022/07/13 05:21:33;;;;;;;;;17.00;17.00;;;;;29.60;34.61;101809.28;5041372;28;45461;-67
2022/07/13 05:23:59;;;;;;;;;17.25;15.50;;;;;29.65;34.97;101816.97;5026638;28;45423;-67
2022/07/13 05:26:24;;;;;;;;;17.50;13.25;;;;;29.69;34.96;101818.16;5051020;28;45228;-67
2022/07/13 05:28:49;;;;;;;;;16.67;16.00;;;;;29.69;34.15;101793.78;5047068;28;45323;-67
2022/07/13 05:31:15;;;;;;;;;20.75;15.50;;;;;29.81;34.35;101813.34;5034698;28;45385;-69
2022/07/13 05:33:40;;;;;;;;;12.75;11.50;;;;;29.87;33.41;101817.09;5045517;28;45465;-68
2022/07/13 05:36:06;;;;;;;;;11.00;11.00;;;;;29.92;33.07;101815.25;5040390;28;45614;-68
2022/07/13 05:38:31;;;;;;;;;13.50;12.50;;;;;30.01;32.12;101822.19;5044839;28;45674;-70
2022/07/13 05:40:57;;;;;;;;;13.33;10.67;;;;;30.05;31.22;101826.19;5045490;28;45176;-66
2022/07/13 05:43:22;;;;;;;;;10.67;10.67;;;;;30.15;30.43;101820.78;5043179;28;45241;-66
2022/07/13 05:45:48;;;;;;;;;12.67;9.67;;;;;30.22;30.24;101819.75;5048218;28;45613;-66
2022/07/13 05:48:13;;;;;;;;;8.33;6.00;;;;;30.26;29.00;101809.72;5042835;28;45406;-66
2022/07/13 05:50:39;;;;;;;;;7.00;7.00;;;;;30.38;28.67;101821.72;5042490;28;45383;-66
2022/07/13 05:53:04;;;;;;;;;7.00;5.00;;;;;30.42;28.60;101820.09;5044826;28;45333;-67
2022/07/13 05:55:30;;;;;;;;;6.67;6.67;;;;;30.48;28.77;101813.47;5053281;28;45639;-68
2022/07/13 05:57:55;;;;;;;;;8.67;7.67;;;;;30.53;28.39;101817.25;5029430;28;47873;-66
2022/07/13 06:00:21;;;;;;;;;4.67;4.67;;;;;30.60;27.89;101827.47;5052743;28;45387;-67
2022/07/13 06:02:46;;;;;;;;;6.33;6.33;;;;;30.68;28.44;101832.66;5035590;28;45296;-73
2022/07/13 06:05:12;;;;;;;;;6.00;5.33;;;;;30.69;27.61;101826.75;5038051;28;45645;-67
2022/07/13 06:07:37;;;;;;;;;11.00;7.00;;;;;30.75;28.23;101831.38;5033950;28;47533;-67
2022/07/13 06:10:04;;;;;;;;;5.67;5.67;;;;;30.77;29.02;101834.75;5051848;28;45370;-67
2022/07/13 06:12:29;;;;;;;;;7.00;6.00;;;;;30.77;28.11;101834.75;5036022;28;45197;-67
2022/07/13 06:14:55;;;;;;;;;5.33;5.33;;;;;30.85;27.10;101842.72;5050460;28;45458;-69
2022/07/13 06:17:22;;;;;;;;;6.00;4.50;;;;;30.94;28.05;101824.34;5043290;28;45354;-67
2022/07/13 06:19:48;;;;;;;;;5.00;5.00;;;;;31.06;28.07;101843.06;5046928;28;45348;-67
2022/07/13 06:22:13;;;;;;;;;7.33;7.33;;;;;31.07;27.18;101833.53;5042176;28;45401;-67
2022/07/13 06:24:38;;;;;;;;;9.33;8.00;;;;;31.01;26.82;101837.34;5048844;28;45346;-67
2022/07/13 06:27:04;;;;;;;;;9.67;7.67;;;;;30.95;27.01;101831.69;5048841;28;45601;-67
2022/07/13 06:29:29;;;;;;;;;10.00;8.50;;;;;31.08;27.75;101833.28;5047621;28;45474;-67
2022/07/13 06:31:55;;;;;;;;;12.75;11.50;;;;;31.00;28.97;101836.50;5045128;28;45339;-66
2022/07/13 06:34:20;;;;;;;;;18.50;16.75;;;;;31.05;32.58;101835.75;5048403;28;45590;-66
2022/07/13 06:36:46;;;;;;;;;18.00;13.50;;;;;31.13;32.48;101835.31;5045557;28;46486;-66
2022/07/13 06:39:11;;;;;;;;;17.00;16.75;;;;;31.07;32.53;101823.16;5047204;28;45323;-66
2022/07/13 06:41:37;;;;;;;;;19.50;14.50;;;;;31.29;32.06;101831.59;5043698;28;45323;-66
2022/07/13 06:44:02;;;;;;;;;25.50;18.00;;;;;31.34;32.32;101824.09;5049031;28;45349;-66
2022/07/13 06:46:28;;;;;;;;;18.00;17.25;;;;;31.41;32.61;101817.47;5043701;28;45331;-66
2022/07/13 06:48:53;;;;;;;;;21.25;18.25;;;;;31.30;32.79;101820.13;5048408;28;48208;-68
2022/07/13 06:51:18;;;;;;;;;22.50;17.00;;;;;31.33;32.11;101832.81;5043940;28;45454;-66
2022/07/13 06:53:44;;;;;;;;;22.25;17.25;;;;;31.32;31.77;101831.09;5047923;28;45359;-66
2022/07/13 06:56:09;;;;;;;;;28.25;24.75;;;;;31.44;32.24;101823.38;5041160;28;46230;-66
2022/07/13 06:58:35;;;;;;;;;23.00;20.00;;;;;31.40;32.29;101839.06;5044016;28;45261;-66
2022/07/13 07:01:01;;;;;;;;;25.25;21.25;;;;;31.28;32.29;101843.94;5039933;28;45468;-66
2022/07/13 07:03:26;;;;;;;;;23.00;18.75;;;;;31.27;32.65;101833.81;5045728;28;45588;-68
2022/07/13 07:05:51;;;;;;;;;30.00;24.25;;;;;31.57;32.12;101839.84;5052200;28;46145;-66
2022/07/13 07:08:17;;;;;;;;;25.75;20.50;;;;;31.55;31.79;101839.28;5043144;28;45467;-67
2022/07/13 07:10:43;;;;;;;;;16.25;14.50;;;;;31.56;30.51;101843.75;5039976;28;45332;-68
2022/07/13 07:13:08;;;;;;;;;17.50;14.25;;;;;31.58;30.23;101841.53;5042221;28;45420;-66
2022/07/13 07:15:35;;;;;;;;;19.25;17.00;;;;;31.66;29.92;101832.69;5038210;28;47028;-66
2022/07/13 07:18:00;;;;;;;;;15.75;13.25;;;;;31.81;29.52;101842.41;5051705;28;45356;-66
2022/07/13 07:20:25;;;;;;;;;16.00;15.50;;;;;31.61;29.37;101835.44;5058528;28;45470;-67
2022/07/13 07:22:51;;;;;;;;;16.25;14.50;;;;;31.53;29.35;101840.63;5055816;28;45485;-67
2022/07/13 07:25:16;;;;;;;;;13.25;12.50;;;;;31.45;28.86;101829.84;5053763;28;46307;-66
2022/07/13 07:27:42;;;;;;;;;11.33;10.33;;;;;31.50;27.29;101843.97;5057126;28;45357;-66
2022/07/13 07:30:08;;;;;;;;;10.67;8.67;;;;;31.63;26.98;101847.25;5048629;28;45320;-67
2022/07/13 07:32:33;;;;;;;;;5.00;5.00;;;;;31.39;26.39;101843.00;5045147;28;45273;-66
2022/07/13 07:34:59;;;;;;;;;6.00;6.00;;;;;31.45;26.07;101846.72;5036023;28;47582;-67
2022/07/13 07:37:25;;;;;;;;;10.00;7.00;;;;;31.39;25.92;101847.75;5045750;28;45389;-67
2022/07/13 07:39:50;;;;;;;;;9.33;8.00;;;;;31.18;25.82;101841.88;5046477;28;45286;-67
2022/07/13 07:42:16;;;;;;;;;7.00;5.67;;;;;31.33;24.92;101846.84;5043088;28;45355;-67
2022/07/13 07:44:41;;;;;;;;;3.67;3.67;;;;;31.24;25.76;101842.78;5051370;28;46137;-67
2022/07/13 07:47:07;;;;;;;;;7.00;6.00;;;;;31.27;25.64;101836.63;5042715;28;45336;-66
2022/07/13 07:49:32;;;;;;;;;6.00;5.33;;;;;31.37;25.60;101833.97;5047149;28;45268;-66
2022/07/13 07:51:58;;;;;;;;;8.33;6.00;;;;;31.35;25.58;101827.75;5049615;28;45174;-67
2022/07/13 07:54:24;;;;;;;;;9.00;7.33;;;;;31.58;25.44;101837.88;5056637;28;46319;-67
2022/07/13 07:56:50;;;;;;;;;4.67;3.00;;;;;31.63;25.58;101841.63;5044675;28;45483;-67
2022/07/13 07:59:15;;;;;;;;;4.67;4.67;;;;;31.46;25.09;101826.78;5051578;28;45465;-67
2022/07/13 08:01:41;;;;;;;;;6.33;5.67;;;;;31.59;25.04;101832.00;5047704;28;46494;-67
2022/07/13 08:04:07;;;;;;;;;5.00;2.00;;;;;31.57;24.95;101822.97;5049872;28;45479;-67
2022/07/13 08:06:33;;;;;;;;;5.33;4.33;;;;;31.44;25.15;101829.00;5046657;28;45422;-66
2022/07/13 08:08:58;;;;;;;;;7.00;6.00;;;;;31.52;25.28;101831.38;5048423;28;45575;-66
2022/07/13 08:11:23;;;;;;;;;9.67;6.33;;;;;31.41;24.82;101829.56;5046712;28;45445;-66
2022/07/13 08:13:51;;;;;;;;;11.00;6.67;;;;;31.56;25.42;101831.69;5045942;28;46195;-66
2022/07/13 08:16:17;;;;;;;;;5.00;5.00;;;;;31.66;25.30;101832.69;5046318;28;45347;-66
2022/07/13 08:18:44;;;;;;;;;4.00;4.00;;;;;31.55;25.73;101819.63;5031694;28;45475;-67
2022/07/13 08:21:09;;;;;;;;;7.33;6.00;;;;;31.48;25.82;101835.81;5043244;28;45410;-66
2022/07/13 08:23:54;;;;;;;;;5.00;5.00;;;;;31.70;25.73;101839.50;5045563;28;45959;-66
2022/07/13 08:26:20;;;;;;;;;6.67;6.67;;;;;31.89;25.42;101834.38;5057990;28;45497;-66
2022/07/13 08:28:46;;;;;;;;;7.00;7.00;;;;;31.82;25.48;101835.69;5053476;28;45469;-66
2022/07/13 08:31:12;;;;;;;;;4.67;4.33;;;;;31.82;25.53;101836.53;5045140;28;45403;-66
2022/07/13 08:39:07;;;;;;;;;6.67;5.00;;;;;32.22;24.59;101836.13;5048249;28;45406;-66
2022/07/13 08:41:33;;;;;;;;;5.33;5.33;;;;;32.67;24.84;101840.47;5043150;28;45368;-66
2022/07/13 08:44:00;;;;;;;;;10.67;6.67;;;;;32.95;24.45;101828.88;5047033;28;46077;-66
2022/07/13 08:46:26;;;;;;;;;8.33;6.67;;;;;33.08;24.33;101828.44;5042740;28;45339;-66
2022/07/13 08:48:54;;;;;;;;;2.67;2.00;;;;;33.20;23.97;101822.59;5039485;28;46070;-66
2022/07/13 08:51:21;;;;;;;;;10.33;7.00;;;;;33.05;24.17;101817.69;5047005;28;45647;-66
2022/07/13 08:53:56;;;;;;;;;6.33;5.33;;;;;33.11;23.62;101821.38;5058946;28;46276;-66
2022/07/13 08:56:22;;;;;;;;;5.00;5.00;;;;;33.25;23.60;101811.34;5040993;28;45504;-66
2022/07/13 08:58:48;;;;;;;;;6.00;6.00;;;;;33.52;23.10;101817.69;5046720;28;45322;-66
2022/07/13 09:01:14;;;;;;;;;5.00;5.00;;;;;33.56;23.65;101817.97;5042776;28;45517;-66
2022/07/13 09:03:40;;;;;;;;;7.00;5.33;;;;;33.50;23.52;101813.44;5052147;28;45442;-67
2022/07/13 09:06:06;;;;;;;;;7.33;7.33;;;;;33.91;22.83;101820.94;5045741;28;45343;-67
2022/07/13 09:08:43;;;;;;;;;11.33;6.00;;;;;34.00;22.78;101813.63;5032425;28;45410;-66
2022/07/13 09:11:09;;;;;;;;;4.00;4.00;;;;;34.17;22.51;101807.75;5044321;28;45218;-66
2022/07/13 09:13:41;;;;;;;;;8.67;8.00;;;;;34.28;22.72;101819.91;5027482;28;45532;-67
2022/07/13 09:16:27;;;;;;;;;5.67;5.67;;;;;34.12;22.28;101815.34;5033439;28;45450;-66
2022/07/13 09:19:00;;;;;;;;;5.00;5.00;;;;;34.26;22.09;101814.56;5053491;28;45443;-67
2022/07/13 09:21:30;;;;;;;;;8.25;8.00;;;;;34.34;22.39;101813.97;5049893;28;45283;-67
2022/07/13 09:24:01;;;;;;;;;4.33;3.67;;;;;34.20;22.27;101812.78;5059890;28;45336;-66
2022/07/13 09:26:40;;;;;;;;;6.00;6.00;;;;;34.46;21.93;101804.41;5054911;28;45216;-66
2022/07/13 09:29:05;;;;;;;;;4.00;4.00;;;;;34.42;21.20;101804.09;5039788;28;45443;-66
2022/07/13 09:31:47;;;;;;;;;3.67;3.33;;;;;34.67;21.56;101806.91;5045564;28;45489;-66
2022/07/13 09:34:14;;;;;;;;;4.33;4.33;;;;;34.25;21.08;101806.38;5036139;28;47155;-66
2022/07/13 09:36:40;;;;;;;;;3.33;2.00;;;;;34.24;20.69;101818.78;5044064;28;45370;-66
2022/07/13 09:39:11;;;;;;;;;6.00;5.00;;;;;34.66;20.26;101804.38;5033477;28;45462;-66
2022/07/13 09:41:37;;;;;;;;;3.67;3.67;;;;;35.01;20.63;101789.38;5039706;28;45418;-66
2022/07/13 09:47:00;;;;;;;;;6.67;6.00;;;;;35.37;20.50;101812.72;5041733;28;45375;-66
2022/07/13 09:49:32;;;;;;;;;4.33;4.00;;;;;35.64;20.81;101804.69;5049750;28;46134;-66
2022/07/13 09:52:00;;;;;;;;;5.33;3.33;;;;;35.71;20.29;101810.91;5057160;28;45483;-66
2022/07/13 09:54:27;;;;;;;;;3.67;3.67;;;;;36.04;20.62;101809.28;5053201;28;45565;-66
2022/07/13 09:56:58;;;;;;;;;7.00;6.00;;;;;36.09;19.87;101806.41;5037378;28;45470;-66
2022/07/13 09:59:24;;;;;;;;;5.33;5.33;;;;;35.88;19.77;101804.84;5054582;28;45448;-66
2022/07/13 10:01:50;;;;;;;;;6.67;6.67;;;;;36.26;20.00;101808.88;5049078;28;45510;-66
2022/07/13 10:04:17;;;;;;;;;6.67;5.67;;;;;36.90;19.14;101811.41;5043084;28;47159;-66
2022/07/13 10:06:43;;;;;;;;;5.33;5.00;;;;;37.37;18.73;101798.44;5046346;28;45267;-66
2022/07/13 10:09:09;;;;;;;;;9.00;8.00;;;;;37.34;19.24;101799.88;5052779;28;45321;-66
2022/07/13 10:11:34;;;;;;;;;6.00;5.00;;;;;37.08;19.02;101801.31;5054471;28;45543;-66
2022/07/13 10:13:59;;;;;;;;;6.50;6.25;;;;;36.95;18.76;101797.22;5034433;28;47480;-67
2022/07/13 10:16:29;;;;;;;;;4.00;4.00;;;;;37.65;18.38;101803.19;5053058;28;45454;-66
2022/07/13 10:19:00;;;;;;;;;5.00;5.00;;;;;37.85;18.08;101799.22;5050457;28;45447;-66
2022/07/13 10:21:50;;;;;;;;;3.75;3.75;;;;;38.59;17.64;101805.16;5050778;28;45314;-66
2022/07/13 10:24:17;;;;;;;;;5.25;4.00;;;;;39.15;17.36;101797.31;5056387;28;46776;-66
2022/07/13 10:26:46;;;;;;;;;2.75;2.75;;;;;38.29;17.84;101798.84;5060336;28;45354;-66
2022/07/13 10:29:12;;;;;;;;;3.75;3.75;;;;;38.49;17.15;101792.88;5049972;28;45393;-68
2022/07/13 10:31:40;;;;;;;;;4.00;4.00;;;;;38.19;17.96;101801.84;5046142;28;45433;-67
2022/07/13 10:34:07;;;;;;;;;3.25;3.25;;;;;38.96;16.86;101785.19;5048146;28;45584;-66
2022/07/13 10:37:03;;;;;;;;;5.00;3.50;;;;;39.32;16.98;101788.13;5045445;28;45485;-66
2022/07/13 10:39:29;;;;;;;;;3.75;3.75;;;;;39.39;16.26;101787.72;5043995;28;45573;-66
2022/07/13 10:42:07;;;;;;;;;6.00;4.00;;;;;39.39;16.21;101788.56;5040062;28;45466;-67
2022/07/13 10:44:42;;;;;;;;;6.75;5.75;;;;;39.98;16.36;101796.06;5049014;28;45476;-67
2022/07/13 10:47:12;;;;;;;;;11.50;11.50;;;;;39.52;16.90;101787.75;5044141;28;45347;-68
2022/07/13 10:49:51;;;;;;;;;5.00;5.00;;;;;39.76;17.11;101786.63;5048779;28;45442;-67
2022/07/13 10:52:22;;;;;;;;;4.00;4.00;;;;;39.99;16.34;101788.38;5041703;28;45439;-69
2022/07/13 10:55:09;;;;;;;;;7.00;7.00;;;;;40.08;15.98;101792.13;5055231;28;46222;-67
2022/07/13 10:57:36;;;;;;;;;5.50;5.50;;;;;40.15;15.82;101794.53;5042777;28;45752;-67
2022/07/13 11:02:51;;;;;;;;;3.50;3.50;;;;;39.73;16.37;101788.13;5064855;28;45391;-67
2022/07/13 11:05:19;;;;;;;;;4.75;4.75;;;;;39.78;16.45;101787.16;5064350;28;45304;-67
2022/07/13 11:07:48;;;;;;;;;18.00;16.75;;;;;39.76;16.54;101793.16;5064621;28;45338;-67
2022/07/13 11:10:30;;;;;;;;;47.00;39.50;;;;;40.08;16.15;101787.28;5057820;28;45478;-67
2022/07/13 11:13:01;;;;;;;;;0.00;0.00;;;;;40.17;16.33;101786.53;5044866;28;45464;-67
2022/07/13 11:15:50;;;;;;;;;46.25;37.50;;;;;40.93;16.34;101781.69;5044254;28;47616;-67
2022/07/13 11:18:21;;;;;;;;;69.25;56.75;;;;;41.61;15.82;101774.59;5043921;28;45303;-67
2022/07/13 11:21:05;;;;;;;;;6.50;5.50;;;;;42.03;15.82;101776.66;5036396;28;45447;-67
2022/07/13 11:26:48;;;;;;;;;4.25;4.25;;;;;42.38;15.32;101782.38;5054102;28;45352;-67
2022/07/13 11:29:46;;;;;;;;;3.50;3.50;;;;;41.78;15.77;101780.31;5044528;28;45329;-66
2022/07/13 11:32:12;;;;;;;;;4.00;4.00;;;;;42.02;15.29;101779.84;5045416;28;45359;-66